aviador You're here:

PAPO Decoded Metar

POINT HOPE in AK, USA
Report Time2017-09-23 18:56:00
UTC Time2017-09-23 20:10:49
Flight Rules Old
Wind060° at 22 kt
W.Decomp.*RWY 01: 17.1 kt HW 13.8 kt RCW
W.Rank060° ranks 14
Current wind is above 060° avg. (9.3)
Visibility9999 m
Phenomena:N/A
Clouds:N/A
Expected CloudBase > 1,600 ft AGL from Temp-Dew spread
CeilingNone
Temp03°C (ISA -12)
Dew Point-1°C (75% RH)
AAT-7.0°C
QNH1013 hPa
Density Alt-1,355 ft
Elevation20 ft
Report Wrong Elevation
Raw Report
PAPO 231856Z AUTO 06022KT 10SM CLR 03/M01 A2990 RMK AO2 PK WND
06026/1855 SLP125 T00331011=

Extra information for PAPO:More info

Metar Taf Metar & Taf Last 4 Metars F.Rules Stats Wind Profile Meteogram Temp Stats Airport Information Weather charts Add Link Nearby VenuesMetar ALERT Operation Metar Decoded Social comments

AIRNAV info for PAPO